sensor_id;sensor_type;location;lat;lon;timestamp;pressure;altitude;pressure_sealevel;temperature;humidity
64889;BME280;51386;53.082;8.816;2023-06-10T00:01:24;101696.34;;;23.99;42.06
64889;BME280;51386;53.082;8.816;2023-06-10T00:03:51;101697.88;;;23.95;41.95
64889;BME280;51386;53.082;8.816;2023-06-10T00:06:19;101695.66;;;23.92;41.84
64889;BME280;51386;53.082;8.816;2023-06-10T00:08:49;101701.75;;;23.88;42.24
64889;BME280;51386;53.082;8.816;2023-06-10T00:11:16;101697.69;;;23.85;42.54
64889;BME280;51386;53.082;8.816;2023-06-10T00:13:43;101695.44;;;23.82;42.17
64889;BME280;51386;53.082;8.816;2023-06-10T00:16:10;101695.94;;;23.79;42.92
64889;BME280;51386;53.082;8.816;2023-06-10T00:18:37;101686.50;;;23.77;42.95
64889;BME280;51386;53.082;8.816;2023-06-10T00:21:05;101687.78;;;23.74;42.91
64889;BME280;51386;53.082;8.816;2023-06-10T00:23:32;101696.88;;;23.73;43.23
64889;BME280;51386;53.082;8.816;2023-06-10T00:26:05;101695.28;;;23.72;43.19
64889;BME280;51386;53.082;8.816;2023-06-10T00:28:33;101696.56;;;23.70;43.37
64889;BME280;51386;53.082;8.816;2023-06-10T00:31:00;101693.31;;;23.68;43.68
64889;BME280;51386;53.082;8.816;2023-06-10T00:33:26;101698.44;;;23.69;43.58
64889;BME280;51386;53.082;8.816;2023-06-10T00:35:54;101700.28;;;23.69;43.52
64889;BME280;51386;53.082;8.816;2023-06-10T00:38:21;101697.28;;;23.65;43.63
64889;BME280;51386;53.082;8.816;2023-06-10T00:40:48;101698.31;;;23.64;43.87
64889;BME280;51386;53.082;8.816;2023-06-10T00:43:17;101700.44;;;23.62;43.73
64889;BME280;51386;53.082;8.816;2023-06-10T00:45:44;101701.25;;;23.63;43.80
64889;BME280;51386;53.082;8.816;2023-06-10T00:48:11;101700.06;;;23.58;43.73
64889;BME280;51386;53.082;8.816;2023-06-10T00:50:39;101703.25;;;23.55;44.01
64889;BME280;51386;53.082;8.816;2023-06-10T00:53:06;101710.97;;;23.52;44.18
64889;BME280;51386;53.082;8.816;2023-06-10T00:55:33;101706.03;;;23.49;44.21
64889;BME280;51386;53.082;8.816;2023-06-10T00:58:01;101710.28;;;23.45;44.41
64889;BME280;51386;53.082;8.816;2023-06-10T01:00:30;101711.09;;;23.45;44.56
64889;BME280;51386;53.082;8.816;2023-06-10T01:02:57;101711.31;;;23.44;44.58
64889;BME280;51386;53.082;8.816;2023-06-10T01:05:25;101714.50;;;23.41;44.85
64889;BME280;51386;53.082;8.816;2023-06-10T01:08:03;101712.50;;;23.36;45.25
64889;BME280;51386;53.082;8.816;2023-06-10T01:10:38;101719.13;;;23.34;45.13
64889;BME280;51386;53.082;8.816;2023-06-10T01:13:11;101722.88;;;23.33;45.22
64889;BME280;51386;53.082;8.816;2023-06-10T01:15:40;101708.84;;;23.31;45.20
64889;BME280;51386;53.082;8.816;2023-06-10T01:18:09;101720.06;;;23.28;45.26
64889;BME280;51386;53.082;8.816;2023-06-10T01:20:37;101722.63;;;23.23;45.47
64889;BME280;51386;53.082;8.816;2023-06-10T01:23:10;101732.22;;;23.19;45.38
64889;BME280;51386;53.082;8.816;2023-06-10T01:25:39;101725.69;;;23.15;45.79
64889;BME280;51386;53.082;8.816;2023-06-10T01:28:13;101728.47;;;23.08;46.12
64889;BME280;51386;53.082;8.816;2023-06-10T01:30:51;101729.16;;;23.04;46.19
64889;BME280;51386;53.082;8.816;2023-06-10T01:33:28;101730.91;;;22.98;46.49
64889;BME280;51386;53.082;8.816;2023-06-10T01:35:58;101729.50;;;22.96;46.38
64889;BME280;51386;53.082;8.816;2023-06-10T01:38:28;101731.03;;;22.92;46.67
64889;BME280;51386;53.082;8.816;2023-06-10T01:40:58;101733.34;;;22.88;47.00
64889;BME280;51386;53.082;8.816;2023-06-10T01:43:25;101737.31;;;22.85;46.67
64889;BME280;51386;53.082;8.816;2023-06-10T01:45:52;101736.16;;;22.81;46.83
64889;BME280;51386;53.082;8.816;2023-06-10T01:48:19;101730.41;;;22.78;47.11
64889;BME280;51386;53.082;8.816;2023-06-10T01:50:46;101728.41;;;22.73;47.43
64889;BME280;51386;53.082;8.816;2023-06-10T01:53:13;101738.81;;;22.70;47.70
64889;BME280;51386;53.082;8.816;2023-06-10T01:55:41;101740.09;;;22.67;47.63
64889;BME280;51386;53.082;8.816;2023-06-10T01:58:08;101738.09;;;22.63;47.60
64889;BME280;51386;53.082;8.816;2023-06-10T02:00:35;101748.41;;;22.59;47.55
64889;BME280;51386;53.082;8.816;2023-06-10T02:03:02;101738.13;;;22.56;47.70
64889;BME280;51386;53.082;8.816;2023-06-10T02:05:29;101744.78;;;22.54;48.06
64889;BME280;51386;53.082;8.816;2023-06-10T02:07:56;101744.44;;;22.50;47.71
64889;BME280;51386;53.082;8.816;2023-06-10T02:10:23;101732.53;;;22.46;48.02
64889;BME280;51386;53.082;8.816;2023-06-10T02:12:52;101736.25;;;22.45;47.53
64889;BME280;51386;53.082;8.816;2023-06-10T02:15:19;101740.44;;;22.41;48.38
64889;BME280;51386;53.082;8.816;2023-06-10T02:17:46;101742.06;;;22.42;47.97
64889;BME280;51386;53.082;8.816;2023-06-10T02:20:13;101755.94;;;22.39;48.20
64889;BME280;51386;53.082;8.816;2023-06-10T02:22:41;101758.25;;;22.36;48.33
64889;BME280;51386;53.082;8.816;2023-06-10T02:25:09;101759.53;;;22.33;48.44
64889;BME280;51386;53.082;8.816;2023-06-10T02:27:36;101764.53;;;22.30;48.69
64889;BME280;51386;53.082;8.816;2023-06-10T02:30:06;101772.44;;;22.24;48.63
64889;BME280;51386;53.082;8.816;2023-06-10T02:32:33;101773.31;;;22.18;48.68
64889;BME280;51386;53.082;8.816;2023-06-10T02:35:00;101778.94;;;22.17;49.01
64889;BME280;51386;53.082;8.816;2023-06-10T02:37:28;101776.84;;;22.19;48.76
64889;BME280;51386;53.082;8.816;2023-06-10T02:39:55;101773.91;;;22.20;49.12
64889;BME280;51386;53.082;8.816;2023-06-10T02:42:22;101774.31;;;22.24;49.00
64889;BME280;51386;53.082;8.816;2023-06-10T02:44:49;101779.44;;;22.25;48.86
64889;BME280;51386;53.082;8.816;2023-06-10T02:47:17;101773.25;;;22.25;48.83
64889;BME280;51386;53.082;8.816;2023-06-10T02:49:44;101776.41;;;22.22;49.16
64889;BME280;51386;53.082;8.816;2023-06-10T02:52:12;101774.16;;;22.19;49.19
64889;BME280;51386;53.082;8.816;2023-06-10T02:54:39;101769.81;;;22.18;49.18
64889;BME280;51386;53.082;8.816;2023-06-10T02:57:06;101776.69;;;22.14;49.64
64889;BME280;51386;53.082;8.816;2023-06-10T02:59:33;101769.41;;;22.03;49.55
64889;BME280;51386;53.082;8.816;2023-06-10T03:02:01;101767.59;;;21.97;49.56
64889;BME280;51386;53.082;8.816;2023-06-10T03:04:30;101767.94;;;21.89;49.53
64889;BME280;51386;53.082;8.816;2023-06-10T03:06:57;101764.84;;;21.85;49.83
64889;BME280;51386;53.082;8.816;2023-06-10T03:09:24;101761.34;;;21.85;50.15
64889;BME280;51386;53.082;8.816;2023-06-10T03:11:51;101766.31;;;21.81;50.53
64889;BME280;51386;53.082;8.816;2023-06-10T03:14:18;101753.16;;;21.80;50.53
64889;BME280;51386;53.082;8.816;2023-06-10T03:16:45;101755.59;;;21.81;50.64
64889;BME280;51386;53.082;8.816;2023-06-10T03:19:12;101765.91;;;21.84;50.01
64889;BME280;51386;53.082;8.816;2023-06-10T03:21:44;101766.50;;;21.86;49.83
64889;BME280;51386;53.082;8.816;2023-06-10T03:24:11;101764.19;;;21.90;50.18
64889;BME280;51386;53.082;8.816;2023-06-10T03:26:39;101771.78;;;21.93;50.16
64889;BME280;51386;53.082;8.816;2023-06-10T03:29:06;101772.38;;;21.95;49.82
64889;BME280;51386;53.082;8.816;2023-06-10T03:31:33;101767.44;;;21.92;49.35
64889;BME280;51386;53.082;8.816;2023-06-10T03:34:01;101769.38;;;21.85;49.72
64889;BME280;51386;53.082;8.816;2023-06-10T03:36:28;101769.25;;;21.80;49.87
64889;BME280;51386;53.082;8.816;2023-06-10T03:38:57;101779.97;;;21.80;49.70
64889;BME280;51386;53.082;8.816;2023-06-10T03:41:24;101777.56;;;21.72;49.71
64889;BME280;51386;53.082;8.816;2023-06-10T03:43:52;101778.00;;;21.69;50.02
64889;BME280;51386;53.082;8.816;2023-06-10T03:46:19;101784.19;;;21.69;50.32
64889;BME280;51386;53.082;8.816;2023-06-10T03:48:46;101783.78;;;21.66;49.96
64889;BME280;51386;53.082;8.816;2023-06-10T03:51:13;101784.69;;;21.59;49.52
64889;BME280;51386;53.082;8.816;2023-06-10T03:53:40;101772.78;;;21.55;49.61
64889;BME280;51386;53.082;8.816;2023-06-10T03:56:08;101770.31;;;21.54;49.66
64889;BME280;51386;53.082;8.816;2023-06-10T03:58:35;101776.13;;;21.51;49.81
64889;BME280;51386;53.082;8.816;2023-06-10T04:01:02;101778.41;;;21.47;49.56
64889;BME280;51386;53.082;8.816;2023-06-10T04:03:30;101777.81;;;21.45;49.48
64889;BME280;51386;53.082;8.816;2023-06-10T04:05:57;101781.16;;;21.41;49.93
64889;BME280;51386;53.082;8.816;2023-06-10T04:08:24;101776.81;;;21.40;49.96
64889;BME280;51386;53.082;8.816;2023-06-10T04:10:52;101782.84;;;21.35;50.08
64889;BME280;51386;53.082;8.816;2023-06-10T04:13:20;101776.91;;;21.33;50.11
64889;BME280;51386;53.082;8.816;2023-06-10T04:15:47;101779.16;;;21.36;49.58
64889;BME280;51386;53.082;8.816;2023-06-10T04:18:14;101786.13;;;21.37;49.78
64889;BME280;51386;53.082;8.816;2023-06-10T04:20:41;101787.19;;;21.36;49.99
64889;BME280;51386;53.082;8.816;2023-06-10T04:23:08;101786.59;;;21.34;49.93
64889;BME280;51386;53.082;8.816;2023-06-10T04:25:35;101790.72;;;21.30;49.96
64889;BME280;51386;53.082;8.816;2023-06-10T04:28:03;101782.09;;;21.28;49.62
64889;BME280;51386;53.082;8.816;2023-06-10T04:30:31;101789.69;;;21.31;50.16
64889;BME280;51386;53.082;8.816;2023-06-10T04:32:58;101792.09;;;21.39;49.66
64889;BME280;51386;53.082;8.816;2023-06-10T04:35:25;101790.38;;;21.45;49.18
64889;BME280;51386;53.082;8.816;2023-06-10T04:37:54;101787.28;;;21.48;49.16
64889;BME280;51386;53.082;8.816;2023-06-10T04:40:21;101794.66;;;21.52;49.38
64889;BME280;51386;53.082;8.816;2023-06-10T04:42:49;101790.63;;;21.62;49.14
64889;BME280;51386;53.082;8.816;2023-06-10T04:45:16;101792.66;;;21.66;48.71
64889;BME280;51386;53.082;8.816;2023-06-10T04:47:44;101796.31;;;21.72;49.03
64889;BME280;51386;53.082;8.816;2023-06-10T04:50:11;101798.09;;;21.78;48.80
64889;BME280;51386;53.082;8.816;2023-06-10T04:52:38;101789.31;;;21.71;48.46
64889;BME280;51386;53.082;8.816;2023-06-10T04:55:08;101792.50;;;21.61;48.35
64889;BME280;51386;53.082;8.816;2023-06-10T04:57:36;101794.66;;;21.52;48.64
64889;BME280;51386;53.082;8.816;2023-06-10T05:00:04;101799.41;;;21.50;48.64
64889;BME280;51386;53.082;8.816;2023-06-10T05:02:33;101793.06;;;21.45;48.17
64889;BME280;51386;53.082;8.816;2023-06-10T05:05:01;101790.78;;;21.48;48.86
64889;BME280;51386;53.082;8.816;2023-06-10T05:07:28;101788.69;;;21.50;48.38
64889;BME280;51386;53.082;8.816;2023-06-10T05:09:55;101788.09;;;21.48;48.37
64889;BME280;51386;53.082;8.816;2023-06-10T05:12:22;101794.72;;;21.46;48.22
64889;BME280;51386;53.082;8.816;2023-06-10T05:14:49;101790.56;;;21.50;48.67
64889;BME280;51386;53.082;8.816;2023-06-10T05:17:16;101785.94;;;21.57;48.46
64889;BME280;51386;53.082;8.816;2023-06-10T05:19:43;101784.84;;;21.65;48.03
64889;BME280;51386;53.082;8.816;2023-06-10T05:22:12;101790.38;;;21.70;47.82
64889;BME280;51386;53.082;8.816;2023-06-10T05:24:40;101794.66;;;21.71;47.74
64889;BME280;51386;53.082;8.816;2023-06-10T05:27:07;101795.41;;;21.78;47.74
64889;BME280;51386;53.082;8.816;2023-06-10T05:29:34;101800.53;;;21.86;47.53
64889;BME280;51386;53.082;8.816;2023-06-10T05:32:01;101802.09;;;21.93;47.29
64889;BME280;51386;53.082;8.816;2023-06-10T05:34:30;101792.22;;;21.94;47.15
64889;BME280;51386;53.082;8.816;2023-06-10T05:36:57;101794.72;;;21.89;47.21
64889;BME280;51386;53.082;8.816;2023-06-10T05:39:26;101806.13;;;21.84;46.99
64889;BME280;51386;53.082;8.816;2023-06-10T05:41:52;101800.53;;;21.86;47.44
64889;BME280;51386;53.082;8.816;2023-06-10T05:44:19;101805.00;;;21.92;47.17
64889;BME280;51386;53.082;8.816;2023-06-10T05:46:46;101806.56;;;21.99;46.88
64889;BME280;51386;53.082;8.816;2023-06-10T05:49:14;101801.34;;;22.04;47.29
64889;BME280;51386;53.082;8.816;2023-06-10T05:51:41;101795.91;;;22.11;46.98
64889;BME280;51386;53.082;8.816;2023-06-10T05:54:08;101799.31;;;22.18;46.59
64889;BME280;51386;53.082;8.816;2023-06-10T05:56:36;101800.38;;;22.17;46.14
64889;BME280;51386;53.082;8.816;2023-06-10T05:59:03;101800.38;;;22.17;46.65
64889;BME280;51386;53.082;8.816;2023-06-10T06:01:30;101798.88;;;22.21;46.12
64889;BME280;51386;53.082;8.816;2023-06-10T06:03:57;101794.25;;;22.28;46.40
64889;BME280;51386;53.082;8.816;2023-06-10T06:06:24;101795.00;;;22.35;46.35
64889;BME280;51386;53.082;8.816;2023-06-10T06:08:51;101797.59;;;22.42;46.01
64889;BME280;51386;53.082;8.816;2023-06-10T06:11:18;101796.19;;;22.39;45.93
64889;BME280;51386;53.082;8.816;2023-06-10T06:13:47;101801.19;;;22.36;45.99
64889;BME280;51386;53.082;8.816;2023-06-10T06:16:19;101809.47;;;22.34;46.00
64889;BME280;51386;53.082;8.816;2023-06-10T06:18:46;101810.75;;;22.32;46.51
64889;BME280;51386;53.082;8.816;2023-06-10T06:21:13;101821.75;;;22.23;46.01
64889;BME280;51386;53.082;8.816;2023-06-10T06:23:40;101823.69;;;22.16;45.93
64889;BME280;51386;53.082;8.816;2023-06-10T06:26:07;101828.25;;;22.16;46.16
64889;BME280;51386;53.082;8.816;2023-06-10T06:28:35;101824.44;;;22.23;46.21
64889;BME280;51386;53.082;8.816;2023-06-10T06:31:03;101817.53;;;22.34;46.47
64889;BME280;51386;53.082;8.816;2023-06-10T06:33:30;101812.56;;;22.49;46.23
64889;BME280;51386;53.082;8.816;2023-06-10T06:35:57;101824.00;;;22.63;45.70
64889;BME280;51386;53.082;8.816;2023-06-10T06:38:24;101811.88;;;22.72;45.59
64889;BME280;51386;53.082;8.816;2023-06-10T06:40:51;101812.94;;;22.82;45.35
64889;BME280;51386;53.082;8.816;2023-06-10T06:43:18;101813.22;;;22.92;45.09
64889;BME280;51386;53.082;8.816;2023-06-10T06:45:46;101809.41;;;23.00;45.03
64889;BME280;51386;53.082;8.816;2023-06-10T06:48:14;101813.38;;;23.09;44.86
64889;BME280;51386;53.082;8.816;2023-06-10T06:50:41;101806.28;;;23.15;44.76
64889;BME280;51386;53.082;8.816;2023-06-10T06:53:08;101810.38;;;23.17;44.25
64889;BME280;51386;53.082;8.816;2023-06-10T06:55:35;101807.44;;;23.19;44.45
64889;BME280;51386;53.082;8.816;2023-06-10T06:58:02;101809.09;;;23.20;44.28
64889;BME280;51386;53.082;8.816;2023-06-10T07:00:31;101805.34;;;23.21;44.44
64889;BME280;51386;53.082;8.816;2023-06-10T07:02:58;101808.41;;;23.24;44.26
64889;BME280;51386;53.082;8.816;2023-06-10T07:05:27;101808.97;;;23.26;44.37
64889;BME280;51386;53.082;8.816;2023-06-10T07:07:54;101811.78;;;23.31;44.27
64889;BME280;51386;53.082;8.816;2023-06-10T07:10:23;101811.31;;;23.34;44.04
64889;BME280;51386;53.082;8.816;2023-06-10T07:12:51;101806.31;;;23.38;43.93
64889;BME280;51386;53.082;8.816;2023-06-10T07:15:18;101811.31;;;23.34;43.96
64889;BME280;51386;53.082;8.816;2023-06-10T07:17:45;101815.75;;;23.29;43.97
64889;BME280;51386;53.082;8.816;2023-06-10T07:20:12;101819.84;;;23.20;44.06
64889;BME280;51386;53.082;8.816;2023-06-10T07:22:42;101824.72;;;23.23;44.12
64889;BME280;51386;53.082;8.816;2023-06-10T07:25:09;101814.34;;;23.26;44.21
64889;BME280;51386;53.082;8.816;2023-06-10T07:27:37;101808.84;;;23.33;44.12
64889;BME280;51386;53.082;8.816;2023-06-10T07:30:06;101813.81;;;23.36;44.17
64889;BME280;51386;53.082;8.816;2023-06-10T07:32:36;101814.69;;;23.30;44.25
64889;BME280;51386;53.082;8.816;2023-06-10T07:35:05;101811.72;;;23.38;44.22
64889;BME280;51386;53.082;8.816;2023-06-10T07:37:32;101817.19;;;23.43;44.01
64889;BME280;51386;53.082;8.816;2023-06-10T07:40:01;101818.03;;;23.43;44.24
64889;BME280;51386;53.082;8.816;2023-06-10T07:42:28;101814.50;;;23.43;44.02
64889;BME280;51386;53.082;8.816;2023-06-10T07:44:54;101821.06;;;23.47;44.12
64889;BME280;51386;53.082;8.816;2023-06-10T07:47:22;101816.38;;;23.54;44.02
64889;BME280;51386;53.082;8.816;2023-06-10T07:49:49;101810.31;;;23.58;43.80
64889;BME280;51386;53.082;8.816;2023-06-10T07:52:15;101803.88;;;23.71;43.70
64889;BME280;51386;53.082;8.816;2023-06-10T07:54:42;101805.72;;;23.82;43.40
64889;BME280;51386;53.082;8.816;2023-06-10T07:57:11;101800.94;;;23.96;43.39
64889;BME280;51386;53.082;8.816;2023-06-10T07:59:38;101805.81;;;24.10;43.21
64889;BME280;51386;53.082;8.816;2023-06-10T08:02:05;101801.84;;;24.25;43.12
64889;BME280;51386;53.082;8.816;2023-06-10T08:04:32;101803.41;;;24.37;42.50
64889;BME280;51386;53.082;8.816;2023-06-10T08:07:02;101794.72;;;24.47;42.56
64889;BME280;51386;53.082;8.816;2023-06-10T08:09:30;101794.91;;;24.57;41.96
64889;BME280;51386;53.082;8.816;2023-06-10T08:11:57;101788.91;;;24.66;41.87
64889;BME280;51386;53.082;8.816;2023-06-10T08:14:25;101797.78;;;24.95;41.93
64889;BME280;51386;53.082;8.816;2023-06-10T08:16:52;101794.31;;;25.83;40.94
64889;BME280;51386;53.082;8.816;2023-06-10T08:19:19;101790.97;;;27.21;38.22
64889;BME280;51386;53.082;8.816;2023-06-10T08:21:46;101794.75;;;28.91;36.09
64889;BME280;51386;53.082;8.816;2023-06-10T08:24:12;101785.97;;;30.48;32.74
64889;BME280;51386;53.082;8.816;2023-06-10T08:26:42;101778.28;;;31.80;30.97
64889;BME280;51386;53.082;8.816;2023-06-10T08:29:11;101787.31;;;32.79;29.14
64889;BME280;51386;53.082;8.816;2023-06-10T08:31:43;101778.13;;;33.94;27.39
64889;BME280;51386;53.082;8.816;2023-06-10T08:34:11;101788.53;;;35.13;26.31
64889;BME280;51386;53.082;8.816;2023-06-10T08:36:38;101785.56;;;36.27;24.74
64889;BME280;51386;53.082;8.816;2023-06-10T08:39:06;101781.47;;;37.27;23.13
64889;BME280;51386;53.082;8.816;2023-06-10T08:41:39;101779.16;;;38.05;22.54
64889;BME280;51386;53.082;8.816;2023-06-10T08:44:12;101778.56;;;38.61;21.51
64889;BME280;51386;53.082;8.816;2023-06-10T08:46:50;101783.31;;;38.94;21.31
64889;BME280;51386;53.082;8.816;2023-06-10T08:49:20;101766.31;;;39.04;20.50
64889;BME280;51386;53.082;8.816;2023-06-10T08:51:50;101773.06;;;39.27;20.28
64889;BME280;51386;53.082;8.816;2023-06-10T08:54:26;101772.16;;;39.83;20.05
64889;BME280;51386;53.082;8.816;2023-06-10T08:56:57;101772.97;;;40.36;19.41
64889;BME280;51386;53.082;8.816;2023-06-10T08:59:25;101782.59;;;40.82;19.40
64889;BME280;51386;53.082;8.816;2023-06-10T09:01:54;101774.03;;;41.46;18.32
64889;BME280;51386;53.082;8.816;2023-06-10T09:04:23;101765.88;;;42.03;17.95
64889;BME280;51386;53.082;8.816;2023-06-10T09:06:52;101769.13;;;42.24;17.35
64889;BME280;51386;53.082;8.816;2023-06-10T09:09:19;101768.13;;;42.52;17.21
64889;BME280;51386;53.082;8.816;2023-06-10T09:11:47;101774.34;;;42.68;16.70
64889;BME280;51386;53.082;8.816;2023-06-10T09:14:14;101774.34;;;42.68;16.72
64889;BME280;51386;53.082;8.816;2023-06-10T09:16:43;101773.19;;;43.10;16.62
64889;BME280;51386;53.082;8.816;2023-06-10T09:19:11;101767.81;;;43.21;16.25
64889;BME280;51386;53.082;8.816;2023-06-10T09:21:39;101768.63;;;43.44;16.10
64889;BME280;51386;53.082;8.816;2023-06-10T09:24:06;101776.03;;;43.86;15.57
64889;BME280;51386;53.082;8.816;2023-06-10T09:26:33;101772.72;;;44.06;15.15
64889;BME280;51386;53.082;8.816;2023-06-10T09:29:04;101777.03;;;44.04;15.42
64889;BME280;51386;53.082;8.816;2023-06-10T09:31:34;101771.47;;;44.00;15.25
64889;BME280;51386;53.082;8.816;2023-06-10T09:34:07;101770.13;;;44.17;15.41
64889;BME280;51386;53.082;8.816;2023-06-10T09:36:38;101771.94;;;44.39;15.22
64889;BME280;51386;53.082;8.816;2023-06-10T09:39:13;101776.66;;;44.65;15.38
64889;BME280;51386;53.082;8.816;2023-06-10T09:41:42;101762.66;;;44.94;14.44
64889;BME280;51386;53.082;8.816;2023-06-10T09:44:12;101768.88;;;45.21;14.07
64889;BME280;51386;53.082;8.816;2023-06-10T09:46:40;101764.81;;;45.62;14.35
64889;BME280;51386;53.082;8.816;2023-06-10T09:49:09;101753.53;;;46.06;13.96
64889;BME280;51386;53.082;8.816;2023-06-10T09:51:37;101753.31;;;46.54;13.75
64889;BME280;51386;53.082;8.816;2023-06-10T09:54:04;101757.75;;;46.69;13.19
64889;BME280;51386;53.082;8.816;2023-06-10T09:56:35;101755.72;;;46.52;13.68
64889;BME280;51386;53.082;8.816;2023-06-10T09:59:03;101758.16;;;46.78;13.28
64889;BME280;51386;53.082;8.816;2023-06-10T10:01:33;101754.63;;;47.23;13.06
64889;BME280;51386;53.082;8.816;2023-06-10T10:04:00;101764.13;;;47.57;12.36
64889;BME280;51386;53.082;8.816;2023-06-10T10:06:28;101760.16;;;47.66;12.14
64889;BME280;51386;53.082;8.816;2023-06-10T10:08:57;101761.34;;;47.57;12.04
64889;BME280;51386;53.082;8.816;2023-06-10T10:11:25;101752.22;;;47.46;12.13
64889;BME280;51386;53.082;8.816;2023-06-10T10:13:54;101749.00;;;47.48;12.45
64889;BME280;51386;53.082;8.816;2023-06-10T10:16:25;101747.38;;;47.65;12.13
64889;BME280;51386;53.082;8.816;2023-06-10T10:18:59;101749.03;;;47.23;12.54
64889;BME280;51386;53.082;8.816;2023-06-10T10:21:35;101757.00;;;47.25;12.48
64889;BME280;51386;53.082;8.816;2023-06-10T10:24:16;101754.19;;;47.39;12.36
64889;BME280;51386;53.082;8.816;2023-06-10T10:26:46;101749.78;;;47.55;12.24
64889;BME280;51386;53.082;8.816;2023-06-10T10:29:22;101745.00;;;47.59;12.27
64889;BME280;51386;53.082;8.816;2023-06-10T10:31:51;101748.59;;;46.79;12.35
64889;BME280;51386;53.082;8.816;2023-06-10T10:34:29;101749.88;;;45.34;12.64
64889;BME280;51386;53.082;8.816;2023-06-10T10:36:58;101752.84;;;43.74;14.20
64889;BME280;51386;53.082;8.816;2023-06-10T10:39:27;101746.75;;;42.33;15.26
64889;BME280;51386;53.082;8.816;2023-06-10T10:41:56;101753.03;;;41.13;15.99
64889;BME280;51386;53.082;8.816;2023-06-10T10:44:24;101749.94;;;40.04;17.17
64889;BME280;51386;53.082;8.816;2023-06-10T10:46:52;101745.66;;;39.10;17.55
64889;BME280;51386;53.082;8.816;2023-06-10T10:49:22;101743.25;;;38.22;18.03
64889;BME280;51386;53.082;8.816;2023-06-10T10:51:57;101742.13;;;37.36;18.71
64889;BME280;51386;53.082;8.816;2023-06-10T10:54:34;101738.63;;;36.63;20.09
64889;BME280;51386;53.082;8.816;2023-06-10T10:57:17;101742.94;;;36.04;20.42
64889;BME280;51386;53.082;8.816;2023-06-10T10:59:51;101736.50;;;35.52;20.47
64889;BME280;51386;53.082;8.816;2023-06-10T11:02:35;101734.50;;;35.05;20.93
64889;BME280;51386;53.082;8.816;2023-06-10T11:05:07;101737.75;;;34.85;20.72
64889;BME280;51386;53.082;8.816;2023-06-10T11:07:35;101731.69;;;34.65;20.89
64889;BME280;51386;53.082;8.816;2023-06-10T11:10:08;101734.50;;;34.38;21.88
64889;BME280;51386;53.082;8.816;2023-06-10T11:12:52;101733.06;;;34.05;21.84
64889;BME280;51386;53.082;8.816;2023-06-10T11:15:22;101713.72;;;33.88;22.48
64889;BME280;51386;53.082;8.816;2023-06-10T11:18:08;101721.47;;;33.59;22.44
64889;BME280;51386;53.082;8.816;2023-06-10T11:21:00;101719.31;;;33.28;20.92
64889;BME280;51386;53.082;8.816;2023-06-10T11:23:39;101724.44;;;33.16;20.81
64889;BME280;51386;53.082;8.816;2023-06-10T11:26:13;101712.09;;;33.05;20.80
64889;BME280;51386;53.082;8.816;2023-06-10T11:28:41;101718.34;;;32.92;21.17
64889;BME280;51386;53.082;8.816;2023-06-10T11:31:09;101720.63;;;32.85;21.17
64889;BME280;51386;53.082;8.816;2023-06-10T11:33:46;101712.03;;;32.78;21.68
64889;BME280;51386;53.082;8.816;2023-06-10T11:36:14;101707.59;;;32.82;21.40
64889;BME280;51386;53.082;8.816;2023-06-10T11:38:43;101716.28;;;32.84;21.24
64889;BME280;51386;53.082;8.816;2023-06-10T11:41:13;101712.81;;;32.78;20.67
64889;BME280;51386;53.082;8.816;2023-06-10T11:43:43;101714.75;;;32.78;20.50
64889;BME280;51386;53.082;8.816;2023-06-10T11:46:11;101707.59;;;32.82;21.36
64889;BME280;51386;53.082;8.816;2023-06-10T11:48:38;101705.38;;;32.98;20.95
64889;BME280;51386;53.082;8.816;2023-06-10T11:51:06;101708.63;;;33.00;19.95
64889;BME280;51386;53.082;8.816;2023-06-10T11:53:34;101699.72;;;32.94;20.37
64889;BME280;51386;53.082;8.816;2023-06-10T11:56:01;101696.50;;;32.92;21.12
64889;BME280;51386;53.082;8.816;2023-06-10T11:58:29;101704.16;;;32.90;21.17
64889;BME280;51386;53.082;8.816;2023-06-10T12:00:56;101694.69;;;32.88;20.83
64889;BME280;51386;53.082;8.816;2023-06-10T12:03:25;101695.84;;;32.82;20.32
64889;BME280;51386;53.082;8.816;2023-06-10T12:06:00;101695.66;;;32.78;20.37
64889;BME280;51386;53.082;8.816;2023-06-10T12:08:28;101691.53;;;32.81;20.75
64889;BME280;51386;53.082;8.816;2023-06-10T12:10:57;101688.81;;;32.81;20.93
64889;BME280;51386;53.082;8.816;2023-06-10T12:13:27;101680.91;;;32.79;20.75
64889;BME280;51386;53.082;8.816;2023-06-10T12:16:06;101695.44;;;32.74;19.97
64889;BME280;51386;53.082;8.816;2023-06-10T12:18:34;101684.03;;;32.72;20.18
64889;BME280;51386;53.082;8.816;2023-06-10T12:21:01;101689.16;;;32.74;20.02
64889;BME280;51386;53.082;8.816;2023-06-10T12:23:30;101676.66;;;32.73;20.17
64889;BME280;51386;53.082;8.816;2023-06-10T12:25:59;101689.06;;;32.79;19.96
64889;BME280;51386;53.082;8.816;2023-06-10T12:28:27;101679.28;;;32.78;19.49
64889;BME280;51386;53.082;8.816;2023-06-10T12:31:07;101670.56;;;32.76;19.48
64889;BME280;51386;53.082;8.816;2023-06-10T12:33:34;101668.78;;;32.85;19.59
64889;BME280;51386;53.082;8.816;2023-06-10T12:36:02;101671.41;;;32.90;20.86
64889;BME280;51386;53.082;8.816;2023-06-10T12:38:29;101659.91;;;32.93;20.89
64889;BME280;51386;53.082;8.816;2023-06-10T12:41:01;101656.56;;;32.96;21.06
64889;BME280;51386;53.082;8.816;2023-06-10T12:43:31;101663.56;;;33.02;20.84
64889;BME280;51386;53.082;8.816;2023-06-10T12:46:10;101653.19;;;33.04;21.15
64889;BME280;51386;53.082;8.816;2023-06-10T12:48:50;101656.31;;;33.11;21.55
64889;BME280;51386;53.082;8.816;2023-06-10T12:51:18;101654.09;;;33.13;20.93
64889;BME280;51386;53.082;8.816;2023-06-10T12:53:46;101655.09;;;33.17;21.10
64889;BME280;51386;53.082;8.816;2023-06-10T12:56:13;101657.31;;;33.15;20.94
64889;BME280;51386;53.082;8.816;2023-06-10T12:58:40;101650.63;;;33.21;21.10